sensor_id;sensor_type;location;lat;lon;timestamp;P1;durP1;ratioP1;P2;durP2;ratioP2
1879;SDS011;49285;49.002;8.390;2022-12-10T00:02:09;27.13;;;16.70;;
1879;SDS011;49285;49.002;8.390;2022-12-10T00:04:35;25.80;;;15.57;;
1879;SDS011;49285;49.002;8.390;2022-12-10T00:07:00;26.40;;;15.80;;
1879;SDS011;49285;49.002;8.390;2022-12-10T00:09:26;28.43;;;16.83;;
1879;SDS011;49285;49.002;8.390;2022-12-10T00:11:52;23.00;;;15.90;;
1879;SDS011;49285;49.002;8.390;2022-12-10T00:14:17;24.17;;;17.10;;
1879;SDS011;49285;49.002;8.390;2022-12-10T00:16:43;24.53;;;15.80;;
1879;SDS011;49285;49.002;8.390;2022-12-10T00:19:08;21.90;;;15.27;;
1879;SDS011;49285;49.002;8.390;2022-12-10T00:21:34;24.50;;;15.43;;
1879;SDS011;49285;49.002;8.390;2022-12-10T00:24:01;26.30;;;17.00;;
1879;SDS011;49285;49.002;8.390;2022-12-10T00:26:29;24.80;;;17.63;;
1879;SDS011;49285;49.002;8.390;2022-12-10T00:28:56;24.00;;;15.90;;
1879;SDS011;49285;49.002;8.390;2022-12-10T00:31:24;22.93;;;15.83;;
1879;SDS011;49285;49.002;8.390;2022-12-10T00:33:55;22.07;;;14.90;;
1879;SDS011;49285;49.002;8.390;2022-12-10T00:36:24;25.50;;;15.63;;
1879;SDS011;49285;49.002;8.390;2022-12-10T00:38:51;23.47;;;15.20;;
1879;SDS011;49285;49.002;8.390;2022-12-10T00:41:17;25.73;;;16.77;;
1879;SDS011;49285;49.002;8.390;2022-12-10T00:43:43;25.67;;;15.80;;
1879;SDS011;49285;49.002;8.390;2022-12-10T00:46:09;24.97;;;16.50;;
1879;SDS011;49285;49.002;8.390;2022-12-10T00:48:36;25.60;;;15.40;;
1879;SDS011;49285;49.002;8.390;2022-12-10T00:51:03;25.47;;;16.30;;
1879;SDS011;49285;49.002;8.390;2022-12-10T00:53:31;25.07;;;16.03;;
1879;SDS011;49285;49.002;8.390;2022-12-10T00:55:58;27.97;;;17.23;;
1879;SDS011;49285;49.002;8.390;2022-12-10T00:58:28;24.87;;;15.10;;
1879;SDS011;49285;49.002;8.390;2022-12-10T01:01:06;25.07;;;17.43;;
1879;SDS011;49285;49.002;8.390;2022-12-10T01:03:31;27.77;;;16.83;;
1879;SDS011;49285;49.002;8.390;2022-12-10T01:05:57;23.60;;;16.00;;
1879;SDS011;49285;49.002;8.390;2022-12-10T01:08:32;25.80;;;16.93;;
1879;SDS011;49285;49.002;8.390;2022-12-10T01:10:58;26.20;;;15.50;;
1879;SDS011;49285;49.002;8.390;2022-12-10T01:13:23;25.50;;;16.73;;
1879;SDS011;49285;49.002;8.390;2022-12-10T01:15:49;23.93;;;14.40;;
1879;SDS011;49285;49.002;8.390;2022-12-10T01:18:14;26.30;;;16.27;;
1879;SDS011;49285;49.002;8.390;2022-12-10T01:20:40;24.33;;;15.40;;
1879;SDS011;49285;49.002;8.390;2022-12-10T01:23:05;24.07;;;15.13;;
1879;SDS011;49285;49.002;8.390;2022-12-10T01:25:31;25.80;;;16.07;;
1879;SDS011;49285;49.002;8.390;2022-12-10T01:27:56;23.57;;;15.03;;
1879;SDS011;49285;49.002;8.390;2022-12-10T01:30:22;28.87;;;16.50;;
1879;SDS011;49285;49.002;8.390;2022-12-10T01:32:47;25.30;;;15.97;;
1879;SDS011;49285;49.002;8.390;2022-12-10T01:35:13;26.03;;;17.30;;
1879;SDS011;49285;49.002;8.390;2022-12-10T01:37:39;24.43;;;17.73;;
1879;SDS011;49285;49.002;8.390;2022-12-10T01:40:04;24.60;;;16.00;;
1879;SDS011;49285;49.002;8.390;2022-12-10T01:42:30;24.80;;;16.47;;
1879;SDS011;49285;49.002;8.390;2022-12-10T01:44:58;26.27;;;17.17;;
1879;SDS011;49285;49.002;8.390;2022-12-10T01:47:29;30.23;;;16.47;;
1879;SDS011;49285;49.002;8.390;2022-12-10T01:49:54;24.37;;;16.17;;
1879;SDS011;49285;49.002;8.390;2022-12-10T01:52:22;24.50;;;15.57;;
1879;SDS011;49285;49.002;8.390;2022-12-10T01:54:47;21.53;;;15.23;;
1879;SDS011;49285;49.002;8.390;2022-12-10T01:57:20;25.50;;;15.10;;
1879;SDS011;49285;49.002;8.390;2022-12-10T01:59:53;22.17;;;14.10;;
1879;SDS011;49285;49.002;8.390;2022-12-10T02:02:32;25.20;;;15.87;;
1879;SDS011;49285;49.002;8.390;2022-12-10T02:08:10;25.20;;;15.97;;
1879;SDS011;49285;49.002;8.390;2022-12-10T02:11:24;24.27;;;17.70;;
1879;SDS011;49285;49.002;8.390;2022-12-10T02:13:45;22.90;;;14.97;;
1879;SDS011;49285;49.002;8.390;2022-12-10T02:19:08;22.93;;;15.40;;
1879;SDS011;49285;49.002;8.390;2022-12-10T02:21:37;26.30;;;16.63;;
1879;SDS011;49285;49.002;8.390;2022-12-10T02:24:06;28.97;;;17.07;;
1879;SDS011;49285;49.002;8.390;2022-12-10T02:26:40;23.17;;;15.07;;
1879;SDS011;49285;49.002;8.390;2022-12-10T02:31:48;25.20;;;15.90;;
1879;SDS011;49285;49.002;8.390;2022-12-10T02:34:21;26.47;;;14.90;;
1879;SDS011;49285;49.002;8.390;2022-12-10T02:36:49;25.43;;;14.93;;
1879;SDS011;49285;49.002;8.390;2022-12-10T02:39:19;24.10;;;16.13;;
1879;SDS011;49285;49.002;8.390;2022-12-10T02:41:51;25.80;;;16.43;;
1879;SDS011;49285;49.002;8.390;2022-12-10T02:44:18;27.40;;;14.90;;
1879;SDS011;49285;49.002;8.390;2022-12-10T02:46:47;24.93;;;15.77;;
1879;SDS011;49285;49.002;8.390;2022-12-10T02:49:17;25.23;;;16.17;;
1879;SDS011;49285;49.002;8.390;2022-12-10T02:51:43;27.47;;;16.17;;
1879;SDS011;49285;49.002;8.390;2022-12-10T02:57:00;22.17;;;15.33;;
1879;SDS011;49285;49.002;8.390;2022-12-10T02:59:42;24.60;;;17.13;;
1879;SDS011;49285;49.002;8.390;2022-12-10T03:04:57;25.50;;;15.33;;
1879;SDS011;49285;49.002;8.390;2022-12-10T03:07:34;25.60;;;15.97;;
1879;SDS011;49285;49.002;8.390;2022-12-10T03:10:11;24.77;;;15.60;;
1879;SDS011;49285;49.002;8.390;2022-12-10T03:13:01;27.43;;;16.00;;
1879;SDS011;49285;49.002;8.390;2022-12-10T03:15:33;23.10;;;15.53;;
1879;SDS011;49285;49.002;8.390;2022-12-10T03:18:03;23.37;;;15.57;;
1879;SDS011;49285;49.002;8.390;2022-12-10T03:20:34;24.17;;;15.80;;
1879;SDS011;49285;49.002;8.390;2022-12-10T03:23:03;26.43;;;17.07;;
1879;SDS011;49285;49.002;8.390;2022-12-10T03:25:33;25.73;;;15.67;;
1879;SDS011;49285;49.002;8.390;2022-12-10T03:28:01;21.93;;;14.40;;
1879;SDS011;49285;49.002;8.390;2022-12-10T03:30:27;25.30;;;16.03;;
1879;SDS011;49285;49.002;8.390;2022-12-10T03:32:54;23.10;;;15.30;;
1879;SDS011;49285;49.002;8.390;2022-12-10T03:35:20;32.60;;;19.17;;
1879;SDS011;49285;49.002;8.390;2022-12-10T03:37:47;25.37;;;15.70;;
1879;SDS011;49285;49.002;8.390;2022-12-10T03:40:14;25.30;;;16.67;;
1879;SDS011;49285;49.002;8.390;2022-12-10T03:42:42;25.37;;;16.80;;
1879;SDS011;49285;49.002;8.390;2022-12-10T03:45:08;33.53;;;18.03;;
1879;SDS011;49285;49.002;8.390;2022-12-10T03:47:34;29.10;;;18.73;;
1879;SDS011;49285;49.002;8.390;2022-12-10T03:50:00;26.33;;;17.20;;
1879;SDS011;49285;49.002;8.390;2022-12-10T03:52:26;31.03;;;17.73;;
1879;SDS011;49285;49.002;8.390;2022-12-10T03:54:51;28.27;;;15.80;;
1879;SDS011;49285;49.002;8.390;2022-12-10T03:57:17;33.93;;;17.80;;
1879;SDS011;49285;49.002;8.390;2022-12-10T03:59:42;26.13;;;16.17;;
1879;SDS011;49285;49.002;8.390;2022-12-10T04:02:08;26.10;;;16.30;;
1879;SDS011;49285;49.002;8.390;2022-12-10T04:04:35;25.00;;;16.63;;
1879;SDS011;49285;49.002;8.390;2022-12-10T04:07:01;28.80;;;18.20;;
1879;SDS011;49285;49.002;8.390;2022-12-10T04:09:27;29.40;;;18.70;;
1879;SDS011;49285;49.002;8.390;2022-12-10T04:11:56;26.27;;;16.80;;
1879;SDS011;49285;49.002;8.390;2022-12-10T04:14:25;28.60;;;16.50;;
1879;SDS011;49285;49.002;8.390;2022-12-10T04:17:10;25.57;;;17.93;;
1879;SDS011;49285;49.002;8.390;2022-12-10T04:19:36;31.97;;;17.80;;
1879;SDS011;49285;49.002;8.390;2022-12-10T04:22:02;27.13;;;17.90;;
1879;SDS011;49285;49.002;8.390;2022-12-10T04:24:47;25.50;;;17.00;;
1879;SDS011;49285;49.002;8.390;2022-12-10T04:27:50;27.83;;;17.30;;
1879;SDS011;49285;49.002;8.390;2022-12-10T04:30:16;30.17;;;17.80;;
1879;SDS011;49285;49.002;8.390;2022-12-10T04:32:41;27.53;;;16.97;;
1879;SDS011;49285;49.002;8.390;2022-12-10T04:35:07;33.93;;;19.50;;
1879;SDS011;49285;49.002;8.390;2022-12-10T04:37:33;27.13;;;17.43;;
1879;SDS011;49285;49.002;8.390;2022-12-10T04:39:59;29.60;;;18.73;;
1879;SDS011;49285;49.002;8.390;2022-12-10T04:42:24;29.80;;;18.93;;
1879;SDS011;49285;49.002;8.390;2022-12-10T04:44:50;26.10;;;16.70;;
1879;SDS011;49285;49.002;8.390;2022-12-10T04:47:16;30.20;;;17.50;;
1879;SDS011;49285;49.002;8.390;2022-12-10T04:49:41;31.53;;;19.27;;
1879;SDS011;49285;49.002;8.390;2022-12-10T04:52:08;31.43;;;17.83;;
1879;SDS011;49285;49.002;8.390;2022-12-10T04:54:35;29.10;;;17.47;;
1879;SDS011;49285;49.002;8.390;2022-12-10T04:57:00;29.57;;;17.50;;
1879;SDS011;49285;49.002;8.390;2022-12-10T04:59:26;29.97;;;17.67;;
1879;SDS011;49285;49.002;8.390;2022-12-10T05:01:52;29.47;;;18.30;;
1879;SDS011;49285;49.002;8.390;2022-12-10T05:04:18;34.53;;;18.77;;
1879;SDS011;49285;49.002;8.390;2022-12-10T05:06:44;32.23;;;19.47;;
1879;SDS011;49285;49.002;8.390;2022-12-10T05:09:10;31.17;;;18.23;;
1879;SDS011;49285;49.002;8.390;2022-12-10T05:11:36;29.90;;;18.07;;
1879;SDS011;49285;49.002;8.390;2022-12-10T05:14:02;28.70;;;18.67;;
1879;SDS011;49285;49.002;8.390;2022-12-10T05:16:29;31.27;;;18.33;;
1879;SDS011;49285;49.002;8.390;2022-12-10T05:18:56;32.23;;;19.50;;
1879;SDS011;49285;49.002;8.390;2022-12-10T05:21:23;32.27;;;19.20;;
1879;SDS011;49285;49.002;8.390;2022-12-10T05:24:10;33.03;;;20.37;;
1879;SDS011;49285;49.002;8.390;2022-12-10T05:26:35;30.83;;;18.53;;
1879;SDS011;49285;49.002;8.390;2022-12-10T05:29:01;27.53;;;18.27;;
1879;SDS011;49285;49.002;8.390;2022-12-10T05:31:28;34.33;;;19.30;;
1879;SDS011;49285;49.002;8.390;2022-12-10T05:33:54;31.27;;;20.07;;
1879;SDS011;49285;49.002;8.390;2022-12-10T05:36:23;33.30;;;19.03;;
1879;SDS011;49285;49.002;8.390;2022-12-10T05:38:51;30.20;;;18.50;;
1879;SDS011;49285;49.002;8.390;2022-12-10T05:41:19;27.63;;;17.30;;
1879;SDS011;49285;49.002;8.390;2022-12-10T05:43:46;34.83;;;18.37;;
1879;SDS011;49285;49.002;8.390;2022-12-10T05:46:17;31.20;;;18.00;;
1879;SDS011;49285;49.002;8.390;2022-12-10T05:48:46;31.50;;;18.17;;
1879;SDS011;49285;49.002;8.390;2022-12-10T05:51:13;31.07;;;19.53;;
1879;SDS011;49285;49.002;8.390;2022-12-10T05:53:40;32.40;;;18.20;;
1879;SDS011;49285;49.002;8.390;2022-12-10T05:56:07;34.77;;;19.80;;
1879;SDS011;49285;49.002;8.390;2022-12-10T05:58:35;37.70;;;20.30;;
1879;SDS011;49285;49.002;8.390;2022-12-10T06:01:05;37.13;;;19.67;;
1879;SDS011;49285;49.002;8.390;2022-12-10T06:03:35;34.97;;;19.67;;
1879;SDS011;49285;49.002;8.390;2022-12-10T06:06:01;31.60;;;18.17;;
1879;SDS011;49285;49.002;8.390;2022-12-10T06:08:27;35.60;;;20.20;;
1879;SDS011;49285;49.002;8.390;2022-12-10T06:10:53;36.23;;;19.50;;
1879;SDS011;49285;49.002;8.390;2022-12-10T06:13:19;33.67;;;20.80;;
1879;SDS011;49285;49.002;8.390;2022-12-10T06:15:45;31.90;;;18.73;;
1879;SDS011;49285;49.002;8.390;2022-12-10T06:18:10;37.63;;;20.53;;
1879;SDS011;49285;49.002;8.390;2022-12-10T06:20:37;31.00;;;18.53;;
1879;SDS011;49285;49.002;8.390;2022-12-10T06:23:03;34.10;;;19.03;;
1879;SDS011;49285;49.002;8.390;2022-12-10T06:25:29;32.40;;;19.83;;
1879;SDS011;49285;49.002;8.390;2022-12-10T06:27:55;36.80;;;18.97;;
1879;SDS011;49285;49.002;8.390;2022-12-10T06:30:21;32.77;;;20.17;;
1879;SDS011;49285;49.002;8.390;2022-12-10T06:32:46;34.03;;;19.20;;
1879;SDS011;49285;49.002;8.390;2022-12-10T06:35:12;34.00;;;19.40;;
1879;SDS011;49285;49.002;8.390;2022-12-10T06:37:37;33.47;;;19.43;;
1879;SDS011;49285;49.002;8.390;2022-12-10T06:40:03;33.73;;;19.70;;
1879;SDS011;49285;49.002;8.390;2022-12-10T06:42:29;35.80;;;21.10;;
1879;SDS011;49285;49.002;8.390;2022-12-10T06:44:55;31.50;;;19.00;;
1879;SDS011;49285;49.002;8.390;2022-12-10T06:47:21;33.20;;;20.60;;
1879;SDS011;49285;49.002;8.390;2022-12-10T06:49:47;33.00;;;19.53;;
1879;SDS011;49285;49.002;8.390;2022-12-10T06:52:12;32.07;;;20.17;;
1879;SDS011;49285;49.002;8.390;2022-12-10T06:54:38;33.83;;;19.30;;
1879;SDS011;49285;49.002;8.390;2022-12-10T06:57:04;33.67;;;19.40;;
1879;SDS011;49285;49.002;8.390;2022-12-10T06:59:29;32.80;;;18.67;;
1879;SDS011;49285;49.002;8.390;2022-12-10T07:01:55;30.70;;;17.47;;
1879;SDS011;49285;49.002;8.390;2022-12-10T07:04:21;34.20;;;19.43;;
1879;SDS011;49285;49.002;8.390;2022-12-10T07:06:46;31.27;;;18.80;;
1879;SDS011;49285;49.002;8.390;2022-12-10T07:09:12;34.53;;;19.43;;
1879;SDS011;49285;49.002;8.390;2022-12-10T07:11:37;30.80;;;19.90;;
1879;SDS011;49285;49.002;8.390;2022-12-10T07:14:03;32.10;;;19.00;;
1879;SDS011;49285;49.002;8.390;2022-12-10T07:16:30;29.33;;;18.23;;
1879;SDS011;49285;49.002;8.390;2022-12-10T07:18:57;33.73;;;20.00;;
1879;SDS011;49285;49.002;8.390;2022-12-10T07:21:42;33.93;;;20.33;;
1879;SDS011;49285;49.002;8.390;2022-12-10T07:24:12;33.90;;;20.67;;
1879;SDS011;49285;49.002;8.390;2022-12-10T07:26:40;35.30;;;18.60;;
1879;SDS011;49285;49.002;8.390;2022-12-10T07:29:08;32.07;;;17.73;;
1879;SDS011;49285;49.002;8.390;2022-12-10T07:31:37;38.07;;;20.60;;
1879;SDS011;49285;49.002;8.390;2022-12-10T07:34:02;31.40;;;18.43;;
1879;SDS011;49285;49.002;8.390;2022-12-10T07:36:28;35.27;;;21.10;;
1879;SDS011;49285;49.002;8.390;2022-12-10T07:38:54;31.33;;;19.13;;
1879;SDS011;49285;49.002;8.390;2022-12-10T07:41:21;32.77;;;19.30;;
1879;SDS011;49285;49.002;8.390;2022-12-10T07:43:47;33.63;;;18.20;;
1879;SDS011;49285;49.002;8.390;2022-12-10T07:46:15;31.53;;;17.80;;
1879;SDS011;49285;49.002;8.390;2022-12-10T07:48:46;34.37;;;19.50;;
1879;SDS011;49285;49.002;8.390;2022-12-10T07:51:13;30.33;;;18.67;;
1879;SDS011;49285;49.002;8.390;2022-12-10T07:53:39;28.37;;;17.17;;
1879;SDS011;49285;49.002;8.390;2022-12-10T07:56:05;34.93;;;20.17;;
1879;SDS011;49285;49.002;8.390;2022-12-10T07:58:31;35.77;;;20.10;;
1879;SDS011;49285;49.002;8.390;2022-12-10T08:00:57;38.30;;;19.80;;
1879;SDS011;49285;49.002;8.390;2022-12-10T08:03:23;28.90;;;16.87;;
1879;SDS011;49285;49.002;8.390;2022-12-10T08:05:59;31.53;;;17.70;;
1879;SDS011;49285;49.002;8.390;2022-12-10T08:08:26;32.23;;;18.00;;
1879;SDS011;49285;49.002;8.390;2022-12-10T08:10:52;35.03;;;17.07;;
1879;SDS011;49285;49.002;8.390;2022-12-10T08:13:17;30.50;;;17.20;;
1879;SDS011;49285;49.002;8.390;2022-12-10T08:15:43;30.77;;;18.33;;
1879;SDS011;49285;49.002;8.390;2022-12-10T08:18:08;33.00;;;20.40;;
1879;SDS011;49285;49.002;8.390;2022-12-10T08:20:34;30.07;;;17.60;;
1879;SDS011;49285;49.002;8.390;2022-12-10T08:23:00;33.40;;;17.30;;
1879;SDS011;49285;49.002;8.390;2022-12-10T08:25:26;29.10;;;17.10;;
1879;SDS011;49285;49.002;8.390;2022-12-10T08:27:52;35.27;;;17.90;;
1879;SDS011;49285;49.002;8.390;2022-12-10T08:30:17;30.60;;;17.73;;
1879;SDS011;49285;49.002;8.390;2022-12-10T08:32:43;29.37;;;18.00;;
1879;SDS011;49285;49.002;8.390;2022-12-10T08:35:08;28.73;;;16.83;;
1879;SDS011;49285;49.002;8.390;2022-12-10T08:37:34;27.90;;;17.43;;
1879;SDS011;49285;49.002;8.390;2022-12-10T08:39:59;27.20;;;17.40;;
1879;SDS011;49285;49.002;8.390;2022-12-10T08:42:25;30.83;;;17.83;;
1879;SDS011;49285;49.002;8.390;2022-12-10T08:44:51;30.37;;;18.13;;
1879;SDS011;49285;49.002;8.390;2022-12-10T08:47:16;33.53;;;18.20;;
1879;SDS011;49285;49.002;8.390;2022-12-10T08:49:42;29.57;;;16.30;;
1879;SDS011;49285;49.002;8.390;2022-12-10T08:52:07;28.20;;;17.43;;
1879;SDS011;49285;49.002;8.390;2022-12-10T08:54:33;26.80;;;17.47;;
1879;SDS011;49285;49.002;8.390;2022-12-10T08:56:58;28.97;;;17.83;;
1879;SDS011;49285;49.002;8.390;2022-12-10T08:59:24;27.97;;;16.83;;
1879;SDS011;49285;49.002;8.390;2022-12-10T09:01:53;32.53;;;18.00;;
1879;SDS011;49285;49.002;8.390;2022-12-10T09:04:18;30.70;;;16.67;;
1879;SDS011;49285;49.002;8.390;2022-12-10T09:06:44;27.40;;;15.60;;
1879;SDS011;49285;49.002;8.390;2022-12-10T09:09:10;26.27;;;16.67;;
1879;SDS011;49285;49.002;8.390;2022-12-10T09:11:35;27.60;;;18.97;;
1879;SDS011;49285;49.002;8.390;2022-12-10T09:14:01;30.17;;;18.50;;
1879;SDS011;49285;49.002;8.390;2022-12-10T09:16:36;27.60;;;16.50;;
1879;SDS011;49285;49.002;8.390;2022-12-10T09:19:03;27.30;;;16.83;;
1879;SDS011;49285;49.002;8.390;2022-12-10T09:21:30;22.53;;;14.60;;
1879;SDS011;49285;49.002;8.390;2022-12-10T09:23:56;27.37;;;16.40;;
1879;SDS011;49285;49.002;8.390;2022-12-10T09:26:23;29.90;;;16.23;;
1879;SDS011;49285;49.002;8.390;2022-12-10T09:28:49;21.50;;;13.73;;
1879;SDS011;49285;49.002;8.390;2022-12-10T09:31:15;23.87;;;16.33;;
1879;SDS011;49285;49.002;8.390;2022-12-10T09:33:42;25.13;;;15.37;;
1879;SDS011;49285;49.002;8.390;2022-12-10T09:36:09;30.37;;;16.83;;
1879;SDS011;49285;49.002;8.390;2022-12-10T09:38:37;25.23;;;15.03;;
1879;SDS011;49285;49.002;8.390;2022-12-10T09:41:05;23.60;;;14.97;;
1879;SDS011;49285;49.002;8.390;2022-12-10T09:49:19;23.27;;;14.60;;
1879;SDS011;49285;49.002;8.390;2022-12-10T09:51:50;24.30;;;15.23;;
1879;SDS011;49285;49.002;8.390;2022-12-10T09:54:22;25.13;;;15.47;;
1879;SDS011;49285;49.002;8.390;2022-12-10T09:56:51;23.00;;;15.77;;
1879;SDS011;49285;49.002;8.390;2022-12-10T09:59:23;21.40;;;13.93;;
1879;SDS011;49285;49.002;8.390;2022-12-10T10:02:46;21.60;;;14.37;;
1879;SDS011;49285;49.002;8.390;2022-12-10T10:04:53;23.37;;;14.20;;
1879;SDS011;49285;49.002;8.390;2022-12-10T10:07:26;27.13;;;15.37;;
1879;SDS011;49285;49.002;8.390;2022-12-10T10:10:05;23.87;;;14.87;;
1879;SDS011;49285;49.002;8.390;2022-12-10T10:12:37;21.17;;;14.60;;
1879;SDS011;49285;49.002;8.390;2022-12-10T10:15:12;23.73;;;15.80;;
1879;SDS011;49285;49.002;8.390;2022-12-10T10:17:39;27.40;;;15.90;;
1879;SDS011;49285;49.002;8.390;2022-12-10T10:20:10;21.60;;;14.47;;
1879;SDS011;49285;49.002;8.390;2022-12-10T10:22:37;22.77;;;14.30;;
1879;SDS011;49285;49.002;8.390;2022-12-10T10:25:03;21.50;;;16.13;;
1879;SDS011;49285;49.002;8.390;2022-12-10T10:27:31;24.10;;;14.80;;
1879;SDS011;49285;49.002;8.390;2022-12-10T10:29:58;24.13;;;15.70;;
1879;SDS011;49285;49.002;8.390;2022-12-10T10:32:28;24.43;;;14.80;;
1879;SDS011;49285;49.002;8.390;2022-12-10T10:37:56;20.83;;;14.10;;
1879;SDS011;49285;49.002;8.390;2022-12-10T10:40:34;24.80;;;14.77;;
1879;SDS011;49285;49.002;8.390;2022-12-10T10:43:06;23.40;;;15.17;;
1879;SDS011;49285;49.002;8.390;2022-12-10T10:46:01;23.17;;;15.20;;
1879;SDS011;49285;49.002;8.390;2022-12-10T10:48:35;22.07;;;13.60;;
1879;SDS011;49285;49.002;8.390;2022-12-10T10:51:06;25.67;;;15.30;;
1879;SDS011;49285;49.002;8.390;2022-12-10T10:58:50;19.47;;;13.33;;
1879;SDS011;49285;49.002;8.390;2022-12-10T11:01:46;23.47;;;15.73;;
1879;SDS011;49285;49.002;8.390;2022-12-10T11:04:14;27.53;;;15.03;;
1879;SDS011;49285;49.002;8.390;2022-12-10T11:06:41;28.27;;;15.80;;
1879;SDS011;49285;49.002;8.390;2022-12-10T11:09:23;23.97;;;15.40;;
1879;SDS011;49285;49.002;8.390;2022-12-10T11:11:52;26.13;;;16.67;;
1879;SDS011;49285;49.002;8.390;2022-12-10T11:14:32;22.70;;;14.17;;
1879;SDS011;49285;49.002;8.390;2022-12-10T11:17:13;24.17;;;14.77;;
1879;SDS011;49285;49.002;8.390;2022-12-10T11:22:25;23.63;;;14.93;;
1879;SDS011;49285;49.002;8.390;2022-12-10T11:24:53;21.03;;;13.70;;
1879;SDS011;49285;49.002;8.390;2022-12-10T11:29:59;21.80;;;14.67;;
1879;SDS011;49285;49.002;8.390;2022-12-10T11:38:22;22.20;;;14.20;;
1879;SDS011;49285;49.002;8.390;2022-12-10T11:56:43;24.67;;;13.53;;
1879;SDS011;49285;49.002;8.390;2022-12-10T12:01:54;21.00;;;13.63;;
1879;SDS011;49285;49.002;8.390;2022-12-10T12:05:00;21.43;;;14.27;;
1879;SDS011;49285;49.002;8.390;2022-12-10T12:13:09;25.43;;;15.10;;
1879;SDS011;49285;49.002;8.390;2022-12-10T12:15:44;20.87;;;15.27;;
1879;SDS011;49285;49.002;8.390;2022-12-10T12:18:25;23.63;;;14.77;;
1879;SDS011;49285;49.002;8.390;2022-12-10T12:21:02;24.03;;;14.90;;
1879;SDS011;49285;49.002;8.390;2022-12-10T12:23:52;23.37;;;15.87;;
1879;SDS011;49285;49.002;8.390;2022-12-10T12:26:35;26.43;;;15.83;;
1879;SDS011;49285;49.002;8.390;2022-12-10T12:29:17;22.47;;;15.10;;
1879;SDS011;49285;49.002;8.390;2022-12-10T12:32:00;23.40;;;15.60;;
1879;SDS011;49285;49.002;8.390;2022-12-10T12:37:17;27.80;;;16.10;;
1879;SDS011;49285;49.002;8.390;2022-12-10T12:42:31;23.73;;;16.40;;
1879;SDS011;49285;49.002;8.390;2022-12-10T12:45:17;17.30;;;12.20;;
1879;SDS011;49285;49.002;8.390;2022-12-10T12:47:51;22.57;;;14.80;;
1879;SDS011;49285;49.002;8.390;2022-12-10T12:53:25;20.30;;;13.87;;
1879;SDS011;49285;49.002;8.390;2022-12-10T12:58:43;22.00;;;14.73;;
1879;SDS011;49285;49.002;8.390;2022-12-10T13:03:55;22.20;;;15.80;;
1879;SDS011;49285;49.002;8.390;2022-12-10T13:06:26;24.47;;;16.43;;
1879;SDS011;49285;49.002;8.390;2022-12-10T13:08:59;21.47;;;14.23;;
1879;SDS011;49285;49.002;8.390;2022-12-10T13:11:43;22.47;;;14.27;;
1879;SDS011;49285;49.002;8.390;2022-12-10T13:14:16;19.90;;;13.20;;
1879;SDS011;49285;49.002;8.390;2022-12-10T13:17:02;19.93;;;13.73;;
1879;SDS011;49285;49.002;8.390;2022-12-10T13:19:50;21.63;;;13.93;;
1879;SDS011;49285;49.002;8.390;2022-12-10T13:25:18;18.80;;;14.50;;
1879;SDS011;49285;49.002;8.390;2022-12-10T13:28:15;21.67;;;14.50;;
1879;SDS011;49285;49.002;8.390;2022-12-10T13:31:05;21.03;;;14.10;;
1879;SDS011;49285;49.002;8.390;2022-12-10T13:33:45;21.30;;;14.97;;
1879;SDS011;49285;49.002;8.390;2022-12-10T13:36:20;22.13;;;13.73;;
1879;SDS011;49285;49.002;8.390;2022-12-10T13:41:32;16.93;;;12.57;;
1879;SDS011;49285;49.002;8.390;2022-12-10T13:50:00;29.43;;;16.43;;
1879;SDS011;49285;49.002;8.390;2022-12-10T13:52:30;20.07;;;13.57;;
1879;SDS011;49285;49.002;8.390;2022-12-10T14:08:53;16.20;;;11.03;;
1879;SDS011;49285;49.002;8.390;2022-12-10T14:11:24;15.73;;;10.87;;
1879;SDS011;49285;49.002;8.390;2022-12-10T14:13:55;19.80;;;12.70;;
1879;SDS011;49285;49.002;8.390;2022-12-10T14:16:23;16.83;;;10.70;;
1879;SDS011;49285;49.002;8.390;2022-12-10T14:18:52;14.17;;;11.10;;
1879;SDS011;49285;49.002;8.390;2022-12-10T14:21:22;12.83;;;10.87;;
1879;SDS011;49285;49.002;8.390;2022-12-10T14:23:49;17.53;;;11.90;;
1879;SDS011;49285;49.002;8.390;2022-12-10T14:26:27;17.20;;;12.40;;
1879;SDS011;49285;49.002;8.390;2022-12-10T14:29:01;12.70;;;10.07;;
1879;SDS011;49285;49.002;8.390;2022-12-10T14:31:36;15.13;;;10.90;;
1879;SDS011;49285;49.002;8.390;2022-12-10T14:34:07;14.63;;;10.50;;
1879;SDS011;49285;49.002;8.390;2022-12-10T14:36:38;16.03;;;11.13;;
1879;SDS011;49285;49.002;8.390;2022-12-10T14:39:31;14.93;;;10.23;;
1879;SDS011;49285;49.002;8.390;2022-12-10T14:41:58;14.20;;;10.60;;
1879;SDS011;49285;49.002;8.390;2022-12-10T14:44:26;12.90;;;9.67;;
1879;SDS011;49285;49.002;8.390;2022-12-10T14:47:04;15.00;;;11.00;;
1879;SDS011;49285;49.002;8.390;2022-12-10T14:49:42;13.33;;;10.90;;
1879;SDS011;49285;49.002;8.390;2022-12-10T14:52:14;18.20;;;12.07;;
1879;SDS011;49285;49.002;8.390;2022-12-10T14:54:42;13.93;;;10.67;;
1879;SDS011;49285;49.002;8.390;2022-12-10T14:57:11;14.73;;;10.23;;
1879;SDS011;49285;49.002;8.390;2022-12-10T15:02:24;13.90;;;10.00;;
1879;SDS011;49285;49.002;8.390;2022-12-10T15:04:51;13.50;;;10.20;;
1879;SDS011;49285;49.002;8.390;2022-12-10T15:07:31;16.30;;;10.70;;
1879;SDS011;49285;49.002;8.390;2022-12-10T15:10:00;15.57;;;11.50;;
1879;SDS011;49285;49.002;8.390;2022-12-10T15:12:32;14.80;;;10.20;;
1879;SDS011;49285;49.002;8.390;2022-12-10T15:15:11;13.90;;;9.90;;
1879;SDS011;49285;49.002;8.390;2022-12-10T15:17:54;16.10;;;10.70;;
1879;SDS011;49285;49.002;8.390;2022-12-10T15:20:21;15.33;;;11.10;;
1879;SDS011;49285;49.002;8.390;2022-12-10T15:22:49;15.47;;;11.87;;
1879;SDS011;49285;49.002;8.390;2022-12-10T15:25:20;15.40;;;10.33;;
1879;SDS011;49285;49.002;8.390;2022-12-10T15:27:54;15.83;;;11.23;;
1879;SDS011;49285;49.002;8.390;2022-12-10T15:30:23;14.03;;;10.60;;
1879;SDS011;49285;49.002;8.390;2022-12-10T15:32:57;16.20;;;10.87;;
1879;SDS011;49285;49.002;8.390;2022-12-10T15:35:22;15.07;;;10.53;;
1879;SDS011;49285;49.002;8.390;2022-12-10T15:37:48;14.60;;;10.50;;
1879;SDS011;49285;49.002;8.390;2022-12-10T15:40:36;14.10;;;10.90;;
1879;SDS011;49285;49.002;8.390;2022-12-10T15:43:13;17.50;;;11.63;;
1879;SDS011;49285;49.002;8.390;2022-12-10T15:45:50;15.47;;;10.90;;
1879;SDS011;49285;49.002;8.390;2022-12-10T15:48:16;14.43;;;10.80;;
1879;SDS011;49285;49.002;8.390;2022-12-10T15:50:42;15.63;;;11.97;;
1879;SDS011;49285;49.002;8.390;2022-12-10T15:53:13;19.13;;;14.30;;
1879;SDS011;49285;49.002;8.390;2022-12-10T15:55:44;19.77;;;13.37;;
1879;SDS011;49285;49.002;8.390;2022-12-10T15:58:11;16.07;;;11.30;;
1879;SDS011;49285;49.002;8.390;2022-12-10T16:00:38;17.20;;;12.50;;
1879;SDS011;49285;49.002;8.390;2022-12-10T16:03:08;16.10;;;11.67;;
1879;SDS011;49285;49.002;8.390;2022-12-10T16:05:39;15.23;;;10.67;;
1879;SDS011;49285;49.002;8.390;2022-12-10T16:08:09;20.07;;;11.47;;
1879;SDS011;49285;49.002;8.390;2022-12-10T16:10:50;15.93;;;11.27;;
1879;SDS011;49285;49.002;8.390;2022-12-10T16:15:50;18.90;;;10.57;;
1879;SDS011;49285;49.002;8.390;2022-12-10T16:18:22;19.17;;;13.10;;
1879;SDS011;49285;49.002;8.390;2022-12-10T16:20:48;19.10;;;13.00;;
1879;SDS011;49285;49.002;8.390;2022-12-10T16:23:14;18.17;;;11.70;;
1879;SDS011;49285;49.002;8.390;2022-12-10T16:25:40;14.87;;;10.53;;
1879;SDS011;49285;49.002;8.390;2022-12-10T16:28:10;15.40;;;11.10;;
1879;SDS011;49285;49.002;8.390;2022-12-10T16:30:40;17.40;;;11.57;;
1879;SDS011;49285;49.002;8.390;2022-12-10T16:33:16;15.73;;;11.50;;
1879;SDS011;49285;49.002;8.390;2022-12-10T16:35:43;18.03;;;11.00;;
1879;SDS011;49285;49.002;8.390;2022-12-10T16:38:09;16.47;;;11.13;;
1879;SDS011;49285;49.002;8.390;2022-12-10T16:40:35;18.80;;;12.37;;